TJIG/SIG METAR and TAF weather

Enter ICAO airport designator
Station Type Date Time Source
TJIG METAR 2020/07/10 20:48 UTC NOAA

TJIG 102048Z 10016G22KT 7SM SHRA SCT030 BKN055 BKN070 29/24 A2999


Station Type Date Time Source
TJIG Decoded METAR 2020/07/10 20:48 UTC NOAA

Station name not available
Jul 10, 2020 - 04:48 PM EDT / 2020.07.10 2048 UTC
Wind: from the E (100 degrees) at 18 MPH (16 KT) gusting to 25 MPH (22 KT):0
Visibility: 7 mile(s):0
Sky conditions: mostly cloudy
Weather: rain showers
Temperature: 84 F (29 C)
Dew Point: 75 F (24 C)
Relative Humidity: 74%
Pressure (altimeter): 29.99 in. Hg (1015 hPa)
ob: TJIG 102048Z 10016G22KT 7SM SHRA SCT030 BKN055 BKN070 29/24 A2999
cycle: 21

Station Type Date Time Source
TJIG TAF UTC NOAA

Error!

Example: see airport list